sensor_id;sensor_type;location;lat;lon;timestamp;P1;durP1;ratioP1;P2;durP2;ratioP2
68942;SDS011;60852;52.190;4.422;2022-10-16T00:01:14;1.78;;;1.74;;
68942;SDS011;60852;52.190;4.422;2022-10-16T00:03:42;1.89;;;1.82;;
68942;SDS011;60852;52.190;4.422;2022-10-16T00:06:09;1.87;;;1.82;;
68942;SDS011;60852;52.190;4.422;2022-10-16T00:08:36;1.76;;;1.72;;
68942;SDS011;60852;52.190;4.422;2022-10-16T00:11:04;1.95;;;1.90;;
68942;SDS011;60852;52.190;4.422;2022-10-16T00:13:32;1.82;;;1.79;;
68942;SDS011;60852;52.190;4.422;2022-10-16T00:15:59;1.84;;;1.81;;
68942;SDS011;60852;52.190;4.422;2022-10-16T00:18:26;1.78;;;1.75;;
68942;SDS011;60852;52.190;4.422;2022-10-16T00:20:53;1.64;;;1.61;;
68942;SDS011;60852;52.190;4.422;2022-10-16T00:23:19;1.66;;;1.63;;
68942;SDS011;60852;52.190;4.422;2022-10-16T00:25:53;1.94;;;1.91;;
68942;SDS011;60852;52.190;4.422;2022-10-16T00:28:24;1.58;;;1.58;;
68942;SDS011;60852;52.190;4.422;2022-10-16T00:30:49;1.86;;;1.84;;
68942;SDS011;60852;52.190;4.422;2022-10-16T00:33:15;1.74;;;1.72;;
68942;SDS011;60852;52.190;4.422;2022-10-16T00:35:40;1.66;;;1.66;;
68942;SDS011;60852;52.190;4.422;2022-10-16T00:38:06;1.63;;;1.63;;
68942;SDS011;60852;52.190;4.422;2022-10-16T00:40:31;1.64;;;1.64;;
68942;SDS011;60852;52.190;4.422;2022-10-16T00:42:57;1.67;;;1.65;;
68942;SDS011;60852;52.190;4.422;2022-10-16T00:45:22;1.70;;;1.68;;
68942;SDS011;60852;52.190;4.422;2022-10-16T00:47:48;1.44;;;1.43;;
68942;SDS011;60852;52.190;4.422;2022-10-16T00:50:22;1.54;;;1.54;;
68942;SDS011;60852;52.190;4.422;2022-10-16T00:52:53;1.57;;;1.57;;
68942;SDS011;60852;52.190;4.422;2022-10-16T00:55:21;1.75;;;1.75;;
68942;SDS011;60852;52.190;4.422;2022-10-16T00:57:47;1.39;;;1.39;;
68942;SDS011;60852;52.190;4.422;2022-10-16T01:00:15;1.60;;;1.60;;
68942;SDS011;60852;52.190;4.422;2022-10-16T01:02:55;1.35;;;1.35;;
68942;SDS011;60852;52.190;4.422;2022-10-16T01:05:24;1.46;;;1.45;;
68942;SDS011;60852;52.190;4.422;2022-10-16T01:08:12;1.37;;;1.37;;
68942;SDS011;60852;52.190;4.422;2022-10-16T01:11:08;1.42;;;1.41;;
68942;SDS011;60852;52.190;4.422;2022-10-16T01:13:53;1.19;;;1.18;;
68942;SDS011;60852;52.190;4.422;2022-10-16T01:16:28;1.35;;;1.33;;
68942;SDS011;60852;52.190;4.422;2022-10-16T01:19:07;1.04;;;1.01;;
68942;SDS011;60852;52.190;4.422;2022-10-16T01:21:46;1.25;;;1.22;;
68942;SDS011;60852;52.190;4.422;2022-10-16T01:27:10;1.31;;;1.28;;
68942;SDS011;60852;52.190;4.422;2022-10-16T01:29:53;1.30;;;1.26;;
68942;SDS011;60852;52.190;4.422;2022-10-16T01:32:48;1.48;;;1.43;;
68942;SDS011;60852;52.190;4.422;2022-10-16T01:37:59;1.30;;;1.30;;
68942;SDS011;60852;52.190;4.422;2022-10-16T01:40:48;1.42;;;1.40;;
68942;SDS011;60852;52.190;4.422;2022-10-16T01:43:22;1.37;;;1.35;;
68942;SDS011;60852;52.190;4.422;2022-10-16T01:45:58;1.32;;;1.30;;
68942;SDS011;60852;52.190;4.422;2022-10-16T01:48:25;1.43;;;1.42;;
68942;SDS011;60852;52.190;4.422;2022-10-16T01:50:55;1.44;;;1.44;;
68942;SDS011;60852;52.190;4.422;2022-10-16T01:53:33;1.38;;;1.38;;
68942;SDS011;60852;52.190;4.422;2022-10-16T01:56:00;1.44;;;1.44;;
68942;SDS011;60852;52.190;4.422;2022-10-16T01:58:30;1.65;;;1.64;;
68942;SDS011;60852;52.190;4.422;2022-10-16T02:01:03;1.54;;;1.51;;
68942;SDS011;60852;52.190;4.422;2022-10-16T02:03:35;1.54;;;1.54;;
68942;SDS011;60852;52.190;4.422;2022-10-16T02:06:06;1.64;;;1.62;;
68942;SDS011;60852;52.190;4.422;2022-10-16T02:08:32;1.42;;;1.42;;
68942;SDS011;60852;52.190;4.422;2022-10-16T02:10:59;1.51;;;1.49;;
68942;SDS011;60852;52.190;4.422;2022-10-16T02:13:37;1.53;;;1.50;;
68942;SDS011;60852;52.190;4.422;2022-10-16T02:16:17;1.57;;;1.53;;
68942;SDS011;60852;52.190;4.422;2022-10-16T02:18:43;1.38;;;1.35;;
68942;SDS011;60852;52.190;4.422;2022-10-16T02:24:28;1.44;;;1.40;;
68942;SDS011;60852;52.190;4.422;2022-10-16T02:27:01;1.46;;;1.43;;
68942;SDS011;60852;52.190;4.422;2022-10-16T02:29:35;1.81;;;1.79;;
68942;SDS011;60852;52.190;4.422;2022-10-16T02:32:13;1.83;;;1.80;;
68942;SDS011;60852;52.190;4.422;2022-10-16T02:34:45;1.77;;;1.76;;
68942;SDS011;60852;52.190;4.422;2022-10-16T02:37:14;1.65;;;1.65;;
68942;SDS011;60852;52.190;4.422;2022-10-16T02:39:42;1.80;;;1.80;;
68942;SDS011;60852;52.190;4.422;2022-10-16T02:42:12;1.90;;;1.90;;
68942;SDS011;60852;52.190;4.422;2022-10-16T02:44:39;2.04;;;2.03;;
68942;SDS011;60852;52.190;4.422;2022-10-16T02:47:05;2.07;;;2.07;;
68942;SDS011;60852;52.190;4.422;2022-10-16T02:49:30;1.95;;;1.95;;
68942;SDS011;60852;52.190;4.422;2022-10-16T02:51:56;2.34;;;2.34;;
68942;SDS011;60852;52.190;4.422;2022-10-16T02:54:21;2.16;;;2.16;;
68942;SDS011;60852;52.190;4.422;2022-10-16T02:56:47;2.15;;;2.15;;
68942;SDS011;60852;52.190;4.422;2022-10-16T02:59:12;2.24;;;2.24;;
68942;SDS011;60852;52.190;4.422;2022-10-16T03:01:38;2.25;;;2.25;;
68942;SDS011;60852;52.190;4.422;2022-10-16T03:04:03;2.19;;;2.19;;
68942;SDS011;60852;52.190;4.422;2022-10-16T03:06:28;2.16;;;2.16;;
68942;SDS011;60852;52.190;4.422;2022-10-16T03:08:54;2.01;;;2.01;;
68942;SDS011;60852;52.190;4.422;2022-10-16T03:11:19;2.28;;;2.28;;
68942;SDS011;60852;52.190;4.422;2022-10-16T03:13:45;2.09;;;2.06;;
68942;SDS011;60852;52.190;4.422;2022-10-16T03:16:10;2.35;;;2.30;;
68942;SDS011;60852;52.190;4.422;2022-10-16T03:18:35;2.21;;;2.17;;
68942;SDS011;60852;52.190;4.422;2022-10-16T03:21:01;2.05;;;2.02;;
68942;SDS011;60852;52.190;4.422;2022-10-16T03:23:27;1.86;;;1.86;;
68942;SDS011;60852;52.190;4.422;2022-10-16T03:25:53;1.97;;;1.97;;
68942;SDS011;60852;52.190;4.422;2022-10-16T03:28:19;1.91;;;1.91;;
68942;SDS011;60852;52.190;4.422;2022-10-16T03:30:44;1.89;;;1.89;;
68942;SDS011;60852;52.190;4.422;2022-10-16T03:33:09;1.87;;;1.87;;
68942;SDS011;60852;52.190;4.422;2022-10-16T03:35:35;1.99;;;1.99;;
68942;SDS011;60852;52.190;4.422;2022-10-16T03:38:00;1.69;;;1.69;;
68942;SDS011;60852;52.190;4.422;2022-10-16T03:40:26;1.70;;;1.70;;
68942;SDS011;60852;52.190;4.422;2022-10-16T03:42:51;1.79;;;1.79;;
68942;SDS011;60852;52.190;4.422;2022-10-16T03:45:18;1.83;;;1.82;;
68942;SDS011;60852;52.190;4.422;2022-10-16T03:47:43;1.82;;;1.73;;
68942;SDS011;60852;52.190;4.422;2022-10-16T03:50:08;1.67;;;1.60;;
68942;SDS011;60852;52.190;4.422;2022-10-16T03:52:34;1.78;;;1.72;;
68942;SDS011;60852;52.190;4.422;2022-10-16T03:54:59;1.88;;;1.78;;
68942;SDS011;60852;52.190;4.422;2022-10-16T03:57:25;2.04;;;1.90;;
68942;SDS011;60852;52.190;4.422;2022-10-16T03:59:50;1.74;;;1.62;;
68942;SDS011;60852;52.190;4.422;2022-10-16T04:02:16;1.69;;;1.58;;
68942;SDS011;60852;52.190;4.422;2022-10-16T04:04:41;1.64;;;1.56;;
68942;SDS011;60852;52.190;4.422;2022-10-16T04:07:07;1.75;;;1.65;;
68942;SDS011;60852;52.190;4.422;2022-10-16T04:09:33;1.86;;;1.68;;
68942;SDS011;60852;52.190;4.422;2022-10-16T04:11:58;2.20;;;1.91;;
68942;SDS011;60852;52.190;4.422;2022-10-16T04:14:24;2.25;;;1.88;;
68942;SDS011;60852;52.190;4.422;2022-10-16T04:16:49;2.17;;;1.81;;
68942;SDS011;60852;52.190;4.422;2022-10-16T04:19:14;2.05;;;1.75;;
68942;SDS011;60852;52.190;4.422;2022-10-16T04:21:40;2.25;;;1.88;;
68942;SDS011;60852;52.190;4.422;2022-10-16T04:24:05;2.56;;;2.11;;
68942;SDS011;60852;52.190;4.422;2022-10-16T04:26:31;2.12;;;1.75;;
68942;SDS011;60852;52.190;4.422;2022-10-16T04:28:56;2.28;;;1.88;;
68942;SDS011;60852;52.190;4.422;2022-10-16T04:31:22;2.47;;;2.04;;
68942;SDS011;60852;52.190;4.422;2022-10-16T04:33:47;2.47;;;2.07;;
68942;SDS011;60852;52.190;4.422;2022-10-16T04:36:13;2.06;;;1.73;;
68942;SDS011;60852;52.190;4.422;2022-10-16T04:38:38;2.33;;;1.97;;
68942;SDS011;60852;52.190;4.422;2022-10-16T04:41:05;2.04;;;1.75;;
68942;SDS011;60852;52.190;4.422;2022-10-16T04:43:31;2.12;;;1.84;;
68942;SDS011;60852;52.190;4.422;2022-10-16T04:45:57;2.15;;;1.88;;
68942;SDS011;60852;52.190;4.422;2022-10-16T04:48:22;2.15;;;1.89;;
68942;SDS011;60852;52.190;4.422;2022-10-16T04:50:48;2.23;;;1.95;;
68942;SDS011;60852;52.190;4.422;2022-10-16T04:53:13;2.19;;;1.92;;
68942;SDS011;60852;52.190;4.422;2022-10-16T04:55:39;2.19;;;1.90;;
68942;SDS011;60852;52.190;4.422;2022-10-16T04:58:06;2.15;;;1.88;;
68942;SDS011;60852;52.190;4.422;2022-10-16T05:00:31;2.34;;;2.07;;
68942;SDS011;60852;52.190;4.422;2022-10-16T05:02:57;1.69;;;1.52;;
68942;SDS011;60852;52.190;4.422;2022-10-16T05:05:24;2.11;;;1.96;;
68942;SDS011;60852;52.190;4.422;2022-10-16T05:07:50;2.04;;;1.90;;
68942;SDS011;60852;52.190;4.422;2022-10-16T05:10:16;1.91;;;1.79;;
68942;SDS011;60852;52.190;4.422;2022-10-16T05:12:41;2.03;;;1.91;;
68942;SDS011;60852;52.190;4.422;2022-10-16T05:15:07;2.24;;;2.09;;
68942;SDS011;60852;52.190;4.422;2022-10-16T05:17:33;2.17;;;2.01;;
68942;SDS011;60852;52.190;4.422;2022-10-16T05:19:58;2.09;;;1.95;;
68942;SDS011;60852;52.190;4.422;2022-10-16T05:22:24;2.19;;;2.06;;
68942;SDS011;60852;52.190;4.422;2022-10-16T05:24:49;2.25;;;2.10;;
68942;SDS011;60852;52.190;4.422;2022-10-16T05:27:15;2.10;;;2.00;;
68942;SDS011;60852;52.190;4.422;2022-10-16T05:29:47;2.35;;;2.27;;
68942;SDS011;60852;52.190;4.422;2022-10-16T05:32:17;1.86;;;1.80;;
68942;SDS011;60852;52.190;4.422;2022-10-16T05:34:44;2.00;;;1.90;;
68942;SDS011;60852;52.190;4.422;2022-10-16T05:37:09;1.64;;;1.54;;
68942;SDS011;60852;52.190;4.422;2022-10-16T05:39:36;1.93;;;1.81;;
68942;SDS011;60852;52.190;4.422;2022-10-16T05:42:02;2.08;;;1.94;;
68942;SDS011;60852;52.190;4.422;2022-10-16T05:44:27;2.12;;;1.99;;
68942;SDS011;60852;52.190;4.422;2022-10-16T05:46:53;2.18;;;2.09;;
68942;SDS011;60852;52.190;4.422;2022-10-16T05:49:18;2.28;;;2.14;;
68942;SDS011;60852;52.190;4.422;2022-10-16T05:51:44;2.30;;;2.28;;
68942;SDS011;60852;52.190;4.422;2022-10-16T05:54:09;2.16;;;2.16;;
68942;SDS011;60852;52.190;4.422;2022-10-16T05:56:35;2.42;;;2.42;;
68942;SDS011;60852;52.190;4.422;2022-10-16T05:59:00;2.53;;;2.53;;
68942;SDS011;60852;52.190;4.422;2022-10-16T06:01:26;2.51;;;2.51;;
68942;SDS011;60852;52.190;4.422;2022-10-16T06:03:51;2.29;;;2.29;;
68942;SDS011;60852;52.190;4.422;2022-10-16T06:06:21;2.54;;;2.54;;
68942;SDS011;60852;52.190;4.422;2022-10-16T06:08:51;2.53;;;2.53;;
68942;SDS011;60852;52.190;4.422;2022-10-16T06:11:18;2.42;;;2.42;;
68942;SDS011;60852;52.190;4.422;2022-10-16T06:13:49;2.56;;;2.56;;
68942;SDS011;60852;52.190;4.422;2022-10-16T06:16:16;2.66;;;2.66;;
68942;SDS011;60852;52.190;4.422;2022-10-16T06:18:41;2.69;;;2.67;;
68942;SDS011;60852;52.190;4.422;2022-10-16T06:21:10;2.71;;;2.70;;
68942;SDS011;60852;52.190;4.422;2022-10-16T06:23:39;2.74;;;2.72;;
68942;SDS011;60852;52.190;4.422;2022-10-16T06:26:08;3.33;;;3.25;;
68942;SDS011;60852;52.190;4.422;2022-10-16T06:28:34;3.21;;;3.14;;
68942;SDS011;60852;52.190;4.422;2022-10-16T06:31:00;3.39;;;3.38;;
68942;SDS011;60852;52.190;4.422;2022-10-16T06:33:27;2.74;;;2.72;;
68942;SDS011;60852;52.190;4.422;2022-10-16T06:35:53;2.68;;;2.62;;
68942;SDS011;60852;52.190;4.422;2022-10-16T06:38:18;2.70;;;2.59;;
68942;SDS011;60852;52.190;4.422;2022-10-16T06:40:44;2.29;;;2.17;;
68942;SDS011;60852;52.190;4.422;2022-10-16T06:43:09;2.43;;;2.31;;
68942;SDS011;60852;52.190;4.422;2022-10-16T06:45:34;2.62;;;2.43;;
68942;SDS011;60852;52.190;4.422;2022-10-16T06:48:00;2.46;;;2.28;;
68942;SDS011;60852;52.190;4.422;2022-10-16T06:50:25;2.32;;;2.15;;
68942;SDS011;60852;52.190;4.422;2022-10-16T06:52:51;2.27;;;2.10;;
68942;SDS011;60852;52.190;4.422;2022-10-16T06:55:16;2.50;;;2.27;;
68942;SDS011;60852;52.190;4.422;2022-10-16T06:57:42;2.46;;;2.21;;
68942;SDS011;60852;52.190;4.422;2022-10-16T07:00:09;2.63;;;2.26;;
68942;SDS011;60852;52.190;4.422;2022-10-16T07:02:34;3.11;;;2.62;;
68942;SDS011;60852;52.190;4.422;2022-10-16T07:05:00;3.26;;;2.68;;
68942;SDS011;60852;52.190;4.422;2022-10-16T07:07:25;3.20;;;2.57;;
68942;SDS011;60852;52.190;4.422;2022-10-16T07:09:51;3.30;;;2.65;;
68942;SDS011;60852;52.190;4.422;2022-10-16T07:12:17;3.81;;;2.94;;
68942;SDS011;60852;52.190;4.422;2022-10-16T07:14:43;3.75;;;2.84;;
68942;SDS011;60852;52.190;4.422;2022-10-16T07:17:08;3.46;;;2.70;;
68942;SDS011;60852;52.190;4.422;2022-10-16T07:19:34;3.60;;;2.80;;
68942;SDS011;60852;52.190;4.422;2022-10-16T07:22:00;3.60;;;2.75;;
68942;SDS011;60852;52.190;4.422;2022-10-16T07:24:25;3.76;;;2.80;;
68942;SDS011;60852;52.190;4.422;2022-10-16T07:26:51;3.54;;;2.73;;
68942;SDS011;60852;52.190;4.422;2022-10-16T07:29:18;3.69;;;2.93;;
68942;SDS011;60852;52.190;4.422;2022-10-16T07:31:47;3.57;;;2.85;;
68942;SDS011;60852;52.190;4.422;2022-10-16T07:34:14;3.24;;;2.63;;
68942;SDS011;60852;52.190;4.422;2022-10-16T07:36:41;3.27;;;2.67;;
68942;SDS011;60852;52.190;4.422;2022-10-16T07:39:07;3.60;;;2.92;;
68942;SDS011;60852;52.190;4.422;2022-10-16T07:41:33;3.55;;;2.91;;
68942;SDS011;60852;52.190;4.422;2022-10-16T07:44:01;3.62;;;3.02;;
68942;SDS011;60852;52.190;4.422;2022-10-16T07:46:28;3.55;;;2.98;;
68942;SDS011;60852;52.190;4.422;2022-10-16T07:48:54;3.53;;;3.05;;
68942;SDS011;60852;52.190;4.422;2022-10-16T07:51:20;3.32;;;2.93;;
68942;SDS011;60852;52.190;4.422;2022-10-16T07:53:48;3.28;;;2.92;;
68942;SDS011;60852;52.190;4.422;2022-10-16T07:56:15;3.11;;;2.79;;
68942;SDS011;60852;52.190;4.422;2022-10-16T07:58:42;3.42;;;3.07;;
68942;SDS011;60852;52.190;4.422;2022-10-16T08:01:12;3.35;;;3.09;;
68942;SDS011;60852;52.190;4.422;2022-10-16T08:03:46;2.99;;;2.80;;
68942;SDS011;60852;52.190;4.422;2022-10-16T08:06:14;3.01;;;2.78;;
68942;SDS011;60852;52.190;4.422;2022-10-16T08:08:40;3.07;;;2.78;;
68942;SDS011;60852;52.190;4.422;2022-10-16T08:11:06;3.34;;;2.97;;
68942;SDS011;60852;52.190;4.422;2022-10-16T08:13:31;3.48;;;3.03;;
68942;SDS011;60852;52.190;4.422;2022-10-16T08:15:57;3.69;;;3.19;;
68942;SDS011;60852;52.190;4.422;2022-10-16T08:18:23;3.77;;;3.30;;
68942;SDS011;60852;52.190;4.422;2022-10-16T08:20:54;3.64;;;3.17;;
68942;SDS011;60852;52.190;4.422;2022-10-16T08:23:23;3.47;;;3.03;;
68942;SDS011;60852;52.190;4.422;2022-10-16T08:25:50;3.12;;;2.78;;
68942;SDS011;60852;52.190;4.422;2022-10-16T08:28:17;3.57;;;3.03;;
68942;SDS011;60852;52.190;4.422;2022-10-16T08:30:42;3.56;;;2.99;;
68942;SDS011;60852;52.190;4.422;2022-10-16T08:33:08;3.74;;;3.07;;
68942;SDS011;60852;52.190;4.422;2022-10-16T08:35:33;4.26;;;3.46;;
68942;SDS011;60852;52.190;4.422;2022-10-16T08:37:59;4.02;;;3.22;;
68942;SDS011;60852;52.190;4.422;2022-10-16T08:40:25;3.83;;;3.08;;
68942;SDS011;60852;52.190;4.422;2022-10-16T08:46:14;4.64;;;3.60;;
68942;SDS011;60852;52.190;4.422;2022-10-16T08:48:57;4.69;;;3.57;;
68942;SDS011;60852;52.190;4.422;2022-10-16T08:51:29;4.64;;;3.57;;
68942;SDS011;60852;52.190;4.422;2022-10-16T08:53:59;5.30;;;4.00;;
68942;SDS011;60852;52.190;4.422;2022-10-16T08:56:31;4.33;;;3.40;;
68942;SDS011;60852;52.190;4.422;2022-10-16T08:58:58;4.02;;;3.19;;
68942;SDS011;60852;52.190;4.422;2022-10-16T09:01:26;4.48;;;3.49;;
68942;SDS011;60852;52.190;4.422;2022-10-16T09:06:51;4.85;;;3.64;;
68942;SDS011;60852;52.190;4.422;2022-10-16T09:12:26;6.05;;;4.40;;
68942;SDS011;60852;52.190;4.422;2022-10-16T09:15:24;5.98;;;4.21;;
68942;SDS011;60852;52.190;4.422;2022-10-16T09:18:05;7.06;;;4.78;;
68942;SDS011;60852;52.190;4.422;2022-10-16T09:23:38;6.88;;;4.69;;
68942;SDS011;60852;52.190;4.422;2022-10-16T09:26:03;7.48;;;4.98;;
68942;SDS011;60852;52.190;4.422;2022-10-16T09:28:34;7.64;;;4.94;;
68942;SDS011;60852;52.190;4.422;2022-10-16T09:31:00;7.00;;;4.52;;
68942;SDS011;60852;52.190;4.422;2022-10-16T09:33:28;7.58;;;4.92;;
68942;SDS011;60852;52.190;4.422;2022-10-16T09:35:58;7.36;;;4.86;;
68942;SDS011;60852;52.190;4.422;2022-10-16T09:38:31;8.18;;;5.41;;
68942;SDS011;60852;52.190;4.422;2022-10-16T09:41:02;6.70;;;4.39;;
68942;SDS011;60852;52.190;4.422;2022-10-16T09:46:27;7.59;;;4.86;;
68942;SDS011;60852;52.190;4.422;2022-10-16T09:48:55;7.92;;;4.96;;
68942;SDS011;60852;52.190;4.422;2022-10-16T09:51:26;7.43;;;4.64;;
68942;SDS011;60852;52.190;4.422;2022-10-16T09:54:01;8.00;;;5.07;;
68942;SDS011;60852;52.190;4.422;2022-10-16T09:56:38;7.47;;;4.79;;
68942;SDS011;60852;52.190;4.422;2022-10-16T10:01:44;8.71;;;5.32;;
68942;SDS011;60852;52.190;4.422;2022-10-16T10:04:12;9.46;;;5.86;;
68942;SDS011;60852;52.190;4.422;2022-10-16T10:09:38;8.25;;;5.19;;
68942;SDS011;60852;52.190;4.422;2022-10-16T10:17:48;9.62;;;6.02;;
68942;SDS011;60852;52.190;4.422;2022-10-16T10:20:22;7.91;;;5.00;;
68942;SDS011;60852;52.190;4.422;2022-10-16T10:22:52;8.52;;;5.37;;
68942;SDS011;60852;52.190;4.422;2022-10-16T10:25:23;8.23;;;5.15;;
68942;SDS011;60852;52.190;4.422;2022-10-16T10:30:46;8.53;;;5.16;;
68942;SDS011;60852;52.190;4.422;2022-10-16T10:33:19;8.40;;;5.07;;
68942;SDS011;60852;52.190;4.422;2022-10-16T10:38:57;9.62;;;5.74;;
68942;SDS011;60852;52.190;4.422;2022-10-16T10:46:57;8.19;;;4.91;;
68942;SDS011;60852;52.190;4.422;2022-10-16T10:49:43;7.96;;;4.73;;
68942;SDS011;60852;52.190;4.422;2022-10-16T11:00:14;7.41;;;4.48;;
68942;SDS011;60852;52.190;4.422;2022-10-16T11:03:13;6.96;;;4.19;;
68942;SDS011;60852;52.190;4.422;2022-10-16T11:06:16;8.05;;;4.79;;
68942;SDS011;60852;52.190;4.422;2022-10-16T11:09:38;8.37;;;5.07;;
68942;SDS011;60852;52.190;4.422;2022-10-16T11:11:59;8.07;;;4.88;;
68942;SDS011;60852;52.190;4.422;2022-10-16T11:17:23;9.51;;;5.70;;
68942;SDS011;60852;52.190;4.422;2022-10-16T11:20:12;9.22;;;5.44;;
68942;SDS011;60852;52.190;4.422;2022-10-16T11:22:54;9.37;;;5.60;;
68942;SDS011;60852;52.190;4.422;2022-10-16T11:25:31;8.62;;;5.17;;
68942;SDS011;60852;52.190;4.422;2022-10-16T11:28:32;7.45;;;4.51;;
68942;SDS011;60852;52.190;4.422;2022-10-16T11:33:30;7.95;;;4.76;;
68942;SDS011;60852;52.190;4.422;2022-10-16T11:36:17;9.50;;;5.67;;
68942;SDS011;60852;52.190;4.422;2022-10-16T11:39:00;8.66;;;5.14;;
68942;SDS011;60852;52.190;4.422;2022-10-16T11:41:35;8.75;;;5.23;;
68942;SDS011;60852;52.190;4.422;2022-10-16T11:49:50;7.33;;;4.36;;
68942;SDS011;60852;52.190;4.422;2022-10-16T11:54:57;7.12;;;4.32;;
68942;SDS011;60852;52.190;4.422;2022-10-16T11:57:33;7.08;;;4.36;;
68942;SDS011;60852;52.190;4.422;2022-10-16T12:02:54;7.34;;;4.42;;
68942;SDS011;60852;52.190;4.422;2022-10-16T12:08:33;6.44;;;3.91;;
68942;SDS011;60852;52.190;4.422;2022-10-16T12:11:07;7.02;;;4.26;;
68942;SDS011;60852;52.190;4.422;2022-10-16T12:13:49;7.46;;;4.50;;
68942;SDS011;60852;52.190;4.422;2022-10-16T12:18:41;7.37;;;4.39;;
68942;SDS011;60852;52.190;4.422;2022-10-16T12:21:10;7.62;;;4.58;;
68942;SDS011;60852;52.190;4.422;2022-10-16T12:26:25;7.02;;;4.16;;
68942;SDS011;60852;52.190;4.422;2022-10-16T12:28:54;7.52;;;4.47;;
68942;SDS011;60852;52.190;4.422;2022-10-16T12:31:21;6.91;;;4.12;;
68942;SDS011;60852;52.190;4.422;2022-10-16T12:34:03;6.75;;;4.03;;
68942;SDS011;60852;52.190;4.422;2022-10-16T12:36:30;7.43;;;4.43;;
68942;SDS011;60852;52.190;4.422;2022-10-16T12:39:04;7.11;;;4.27;;
68942;SDS011;60852;52.190;4.422;2022-10-16T12:41:32;8.07;;;4.84;;
68942;SDS011;60852;52.190;4.422;2022-10-16T12:44:04;11.17;;;6.97;;
68942;SDS011;60852;52.190;4.422;2022-10-16T12:49:05;5.40;;;4.01;;
68942;SDS011;60852;52.190;4.422;2022-10-16T13:18:46;5.73;;;3.75;;
68942;SDS011;60852;52.190;4.422;2022-10-16T13:21:43;6.47;;;4.22;;
68942;SDS011;60852;52.190;4.422;2022-10-16T13:29:34;6.06;;;3.84;;
68942;SDS011;60852;52.190;4.422;2022-10-16T13:32:00;8.03;;;5.00;;
68942;SDS011;60852;52.190;4.422;2022-10-16T13:34:41;6.80;;;4.21;;
68942;SDS011;60852;52.190;4.422;2022-10-16T13:37:18;6.96;;;4.33;;
68942;SDS011;60852;52.190;4.422;2022-10-16T13:39:50;6.58;;;4.05;;
68942;SDS011;60852;52.190;4.422;2022-10-16T13:42:23;6.51;;;4.00;;
68942;SDS011;60852;52.190;4.422;2022-10-16T13:44:53;6.44;;;3.97;;
68942;SDS011;60852;52.190;4.422;2022-10-16T13:47:21;6.97;;;4.29;;
68942;SDS011;60852;52.190;4.422;2022-10-16T13:52:26;6.05;;;3.79;;
68942;SDS011;60852;52.190;4.422;2022-10-16T13:54:52;6.19;;;3.88;;
68942;SDS011;60852;52.190;4.422;2022-10-16T13:57:18;6.53;;;4.04;;
68942;SDS011;60852;52.190;4.422;2022-10-16T13:59:48;6.05;;;3.75;;
68942;SDS011;60852;52.190;4.422;2022-10-16T14:02:19;6.25;;;3.88;;
68942;SDS011;60852;52.190;4.422;2022-10-16T14:04:51;5.72;;;3.57;;
68942;SDS011;60852;52.190;4.422;2022-10-16T14:07:23;5.85;;;3.62;;
68942;SDS011;60852;52.190;4.422;2022-10-16T14:09:52;6.39;;;3.96;;
68942;SDS011;60852;52.190;4.422;2022-10-16T14:12:19;6.72;;;4.21;;
68942;SDS011;60852;52.190;4.422;2022-10-16T14:14:47;5.98;;;3.79;;
68942;SDS011;60852;52.190;4.422;2022-10-16T14:17:18;5.93;;;3.78;;
68942;SDS011;60852;52.190;4.422;2022-10-16T14:19:57;7.86;;;5.03;;
68942;SDS011;60852;52.190;4.422;2022-10-16T14:22:27;6.24;;;3.99;;
68942;SDS011;60852;52.190;4.422;2022-10-16T14:24:57;6.30;;;3.96;;
68942;SDS011;60852;52.190;4.422;2022-10-16T14:27:24;6.34;;;3.99;;
68942;SDS011;60852;52.190;4.422;2022-10-16T14:32:57;7.11;;;4.47;;
68942;SDS011;60852;52.190;4.422;2022-10-16T14:35:24;6.76;;;4.26;;
68942;SDS011;60852;52.190;4.422;2022-10-16T14:38:02;6.73;;;4.26;;
68942;SDS011;60852;52.190;4.422;2022-10-16T14:40:30;6.43;;;4.07;;
68942;SDS011;60852;52.190;4.422;2022-10-16T14:42:58;6.48;;;4.06;;
68942;SDS011;60852;52.190;4.422;2022-10-16T14:45:26;6.20;;;3.88;;
68942;SDS011;60852;52.190;4.422;2022-10-16T14:47:56;7.38;;;4.59;;
68942;SDS011;60852;52.190;4.422;2022-10-16T14:50:25;6.91;;;4.32;;
68942;SDS011;60852;52.190;4.422;2022-10-16T14:52:51;6.69;;;4.23;;
68942;SDS011;60852;52.190;4.422;2022-10-16T14:55:16;6.92;;;4.42;;
68942;SDS011;60852;52.190;4.422;2022-10-16T14:57:43;6.88;;;4.36;;
68942;SDS011;60852;52.190;4.422;2022-10-16T15:00:20;7.09;;;4.55;;
68942;SDS011;60852;52.190;4.422;2022-10-16T15:02:48;8.16;;;5.64;;
68942;SDS011;60852;52.190;4.422;2022-10-16T15:05:17;6.46;;;4.94;;
68942;SDS011;60852;52.190;4.422;2022-10-16T15:07:47;6.03;;;4.68;;
68942;SDS011;60852;52.190;4.422;2022-10-16T15:10:14;5.48;;;4.21;;
68942;SDS011;60852;52.190;4.422;2022-10-16T15:12:41;5.52;;;4.30;;
68942;SDS011;60852;52.190;4.422;2022-10-16T15:17:48;4.22;;;3.02;;
68942;SDS011;60852;52.190;4.422;2022-10-16T15:20:17;6.07;;;4.28;;
68942;SDS011;60852;52.190;4.422;2022-10-16T15:22:42;6.12;;;4.32;;
68942;SDS011;60852;52.190;4.422;2022-10-16T15:27:59;6.52;;;4.56;;
68942;SDS011;60852;52.190;4.422;2022-10-16T15:30:26;5.51;;;3.89;;
68942;SDS011;60852;52.190;4.422;2022-10-16T15:32:52;5.59;;;4.00;;
68942;SDS011;60852;52.190;4.422;2022-10-16T15:35:18;5.45;;;3.97;;
68942;SDS011;60852;52.190;4.422;2022-10-16T15:37:43;5.76;;;4.12;;
68942;SDS011;60852;52.190;4.422;2022-10-16T15:40:10;6.09;;;4.42;;
68942;SDS011;60852;52.190;4.422;2022-10-16T15:42:35;6.45;;;4.94;;
68942;SDS011;60852;52.190;4.422;2022-10-16T15:45:01;5.92;;;4.61;;
68942;SDS011;60852;52.190;4.422;2022-10-16T15:47:29;5.47;;;4.30;;
68942;SDS011;60852;52.190;4.422;2022-10-16T15:49:54;6.00;;;4.85;;
68942;SDS011;60852;52.190;4.422;2022-10-16T15:52:20;5.55;;;4.72;;
68942;SDS011;60852;52.190;4.422;2022-10-16T15:54:45;4.23;;;3.71;;
68942;SDS011;60852;52.190;4.422;2022-10-16T15:57:10;4.70;;;4.01;;
68942;SDS011;60852;52.190;4.422;2022-10-16T15:59:36;5.60;;;4.84;;
68942;SDS011;60852;52.190;4.422;2022-10-16T16:02:02;6.37;;;5.82;;
68942;SDS011;60852;52.190;4.422;2022-10-16T16:04:30;7.01;;;6.73;;
68942;SDS011;60852;52.190;4.422;2022-10-16T16:06:56;7.46;;;7.24;;
68942;SDS011;60852;52.190;4.422;2022-10-16T16:09:22;6.79;;;6.64;;
68942;SDS011;60852;52.190;4.422;2022-10-16T16:11:48;6.73;;;6.46;;
68942;SDS011;60852;52.190;4.422;2022-10-16T16:14:14;7.68;;;7.50;;
68942;SDS011;60852;52.190;4.422;2022-10-16T16:16:40;9.12;;;9.10;;
68942;SDS011;60852;52.190;4.422;2022-10-16T16:19:07;6.37;;;6.35;;
68942;SDS011;60852;52.190;4.422;2022-10-16T16:21:33;6.23;;;6.15;;
68942;SDS011;60852;52.190;4.422;2022-10-16T16:23:59;5.72;;;5.48;;
68942;SDS011;60852;52.190;4.422;2022-10-16T16:26:26;6.89;;;6.59;;
68942;SDS011;60852;52.190;4.422;2022-10-16T16:28:57;8.39;;;8.20;;
68942;SDS011;60852;52.190;4.422;2022-10-16T16:31:23;15.80;;;15.61;;
68942;SDS011;60852;52.190;4.422;2022-10-16T16:33:51;16.48;;;16.48;;
68942;SDS011;60852;52.190;4.422;2022-10-16T16:36:17;9.43;;;9.42;;
68942;SDS011;60852;52.190;4.422;2022-10-16T16:38:44;10.79;;;10.78;;
68942;SDS011;60852;52.190;4.422;2022-10-16T16:41:13;11.21;;;11.21;;
68942;SDS011;60852;52.190;4.422;2022-10-16T16:43:40;11.91;;;11.91;;
68942;SDS011;60852;52.190;4.422;2022-10-16T16:46:06;17.19;;;17.10;;
68942;SDS011;60852;52.190;4.422;2022-10-16T16:48:32;19.14;;;18.38;;
68942;SDS011;60852;52.190;4.422;2022-10-16T16:51:07;15.67;;;15.21;;
68942;SDS011;60852;52.190;4.422;2022-10-16T16:53:36;14.75;;;14.36;;
68942;SDS011;60852;52.190;4.422;2022-10-16T16:56:02;13.50;;;13.30;;
68942;SDS011;60852;52.190;4.422;2022-10-16T16:58:30;11.42;;;11.19;;
68942;SDS011;60852;52.190;4.422;2022-10-16T17:00:56;8.94;;;8.72;;
68942;SDS011;60852;52.190;4.422;2022-10-16T17:03:26;7.96;;;7.64;;
68942;SDS011;60852;52.190;4.422;2022-10-16T17:05:58;7.53;;;7.16;;